Al Karkh, Iraq
Current Conditions -  °F | °C
As of 11:00 AM on Wednesday 22 Oct 2014 (Local Time) from ORBI Reporting Station
Clear Clear  
Wind Chill: 73°   Ceiling: Unl
Heat Index: 73°   Visibility: 6mi
Dew Point: 48°   Wind: 6mph
Humidity: 41%   Direction: 180°S
Pressure: 30.15"   Gusts: NA
Location:  33.33°N, 44.33°E
Report Text: ORBI 220800Z 18005KT 140V270 CAVOK 23/09 Q1021 NOSIG
Loading
Personal Weather Stations






























Interactive Weather Map
Tropical Storm Tracking
New forecast layout! Learn more

10-Day Weather Forecast

Advertisements
Track Severe Weather on mobile